createdAt,value
2023-01-25T00:00:07.643Z,13.93
2023-01-25T00:02:34.232Z,12.88
2023-01-25T00:05:00.671Z,12.48
2023-01-25T00:07:27.075Z,12.02
2023-01-25T00:09:53.438Z,12.70
2023-01-25T00:12:19.864Z,12.73
2023-01-25T00:14:46.307Z,11.55
2023-01-25T00:17:12.749Z,11.63
2023-01-25T00:19:39.132Z,12.60
2023-01-25T00:22:05.510Z,13.57
2023-01-25T00:24:31.947Z,14.27
2023-01-25T00:26:58.334Z,17.27
2023-01-25T00:29:24.722Z,15.20
2023-01-25T00:31:51.168Z,15.40
2023-01-25T00:34:17.595Z,14.90
2023-01-25T00:36:43.992Z,16.23
2023-01-25T00:39:10.389Z,14.32
2023-01-25T00:41:36.846Z,13.77
2023-01-25T00:44:03.239Z,13.38
2023-01-25T00:46:29.676Z,14.05
2023-01-25T00:48:56.136Z,12.45
2023-01-25T00:51:22.584Z,12.43
2023-01-25T00:53:49.020Z,12.77
2023-01-25T00:56:15.455Z,15.05
2023-01-25T00:58:41.889Z,14.95
2023-01-25T01:01:08.391Z,14.98
2023-01-25T01:03:34.897Z,17.23
2023-01-25T01:06:01.282Z,15.20
2023-01-25T01:08:27.715Z,16.92
2023-01-25T01:10:54.137Z,18.33
2023-01-25T01:13:20.531Z,17.83
2023-01-25T01:15:46.899Z,17.30
2023-01-25T01:18:13.324Z,16.55
2023-01-25T01:20:39.696Z,14.90
2023-01-25T01:23:06.213Z,12.95
2023-01-25T01:25:32.667Z,14.52
2023-01-25T01:27:59.087Z,13.40
2023-01-25T01:30:25.558Z,14.20
2023-01-25T01:32:52.108Z,14.05
2023-01-25T01:35:18.596Z,13.52
2023-01-25T01:37:44.963Z,14.98
2023-01-25T01:40:11.350Z,14.77
2023-01-25T01:42:37.970Z,16.73
2023-01-25T01:45:04.348Z,17.13
2023-01-25T01:47:30.759Z,14.30
2023-01-25T01:49:57.207Z,15.77
2023-01-25T01:52:23.590Z,16.70
2023-01-25T01:54:50.026Z,14.82
2023-01-25T01:57:16.428Z,14.70
2023-01-25T01:59:42.853Z,13.45
2023-01-25T02:02:09.291Z,17.15
2023-01-25T02:04:35.770Z,14.82
2023-01-25T02:07:02.156Z,18.88
2023-01-25T02:09:28.586Z,15.20
2023-01-25T02:11:54.972Z,16.02
2023-01-25T02:14:21.368Z,14.15
2023-01-25T02:16:47.798Z,15.30
2023-01-25T02:19:14.237Z,15.30
2023-01-25T02:21:40.625Z,15.45
2023-01-25T02:24:07.065Z,18.50
2023-01-25T02:26:33.560Z,18.10
2023-01-25T02:28:59.962Z,19.83
2023-01-25T02:31:26.516Z,17.67
2023-01-25T02:33:53.087Z,19.65
2023-01-25T02:36:19.509Z,15.52
2023-01-25T02:38:45.978Z,15.13
2023-01-25T02:41:12.403Z,17.23
2023-01-25T02:43:39.027Z,17.70
2023-01-25T02:46:05.464Z,17.25
2023-01-25T02:48:31.898Z,17.20
2023-01-25T02:50:58.341Z,16.95
2023-01-25T02:53:24.764Z,15.90
2023-01-25T02:55:51.352Z,13.18
2023-01-25T02:58:17.733Z,18.40
2023-01-25T03:00:44.124Z,13.50
2023-01-25T03:03:10.520Z,16.27
2023-01-25T03:05:36.976Z,15.07
2023-01-25T03:08:03.564Z,14.85
2023-01-25T03:10:29.995Z,15.73
2023-01-25T03:12:56.392Z,15.07
2023-01-25T03:15:22.769Z,14.20
2023-01-25T03:17:49.169Z,14.13
2023-01-25T03:20:15.593Z,16.33
2023-01-25T03:22:42.115Z,17.90
2023-01-25T03:25:08.921Z,14.88
2023-01-25T03:27:35.486Z,17.38
2023-01-25T03:30:01.941Z,15.38
2023-01-25T03:32:28.485Z,15.48
2023-01-25T03:34:54.937Z,16.80
2023-01-25T03:37:21.354Z,19.25
2023-01-25T03:39:47.731Z,19.17
2023-01-25T03:42:14.138Z,19.15
2023-01-25T03:44:40.525Z,15.95
2023-01-25T03:47:06.992Z,16.63
2023-01-25T03:49:33.432Z,18.70
2023-01-25T03:51:59.822Z,20.27
2023-01-25T03:54:26.267Z,19.73
2023-01-25T03:56:52.717Z,20.13
2023-01-25T03:59:19.158Z,18.42
2023-01-25T04:01:45.594Z,18.08
2023-01-25T04:04:11.998Z,17.88
2023-01-25T04:06:38.429Z,17.88
2023-01-25T04:09:04.830Z,19.45
2023-01-25T04:11:31.214Z,20.63
2023-01-25T04:13:57.628Z,19.02
2023-01-25T04:16:24.116Z,16.23
2023-01-25T04:18:50.547Z,16.02
2023-01-25T04:21:16.945Z,18.13
2023-01-25T04:23:43.431Z,18.38
2023-01-25T04:26:09.805Z,20.30
2023-01-25T04:28:36.200Z,25.55
2023-01-25T04:31:02.630Z,22.85
2023-01-25T04:33:29.035Z,19.67
2023-01-25T04:35:55.479Z,18.85
2023-01-25T04:38:21.876Z,20.10
2023-01-25T04:40:48.306Z,19.63
2023-01-25T04:43:14.766Z,16.45
2023-01-25T04:45:41.197Z,15.73
2023-01-25T04:48:07.813Z,16.95
2023-01-25T04:50:34.267Z,16.00
2023-01-25T04:53:00.697Z,20.63
2023-01-25T04:55:27.373Z,20.30
2023-01-25T04:57:53.813Z,20.25
2023-01-25T05:00:20.259Z,20.75
2023-01-25T05:02:46.735Z,23.33
2023-01-25T05:05:13.191Z,20.50
2023-01-25T05:07:39.628Z,20.60
2023-01-25T05:10:06.065Z,20.83
2023-01-25T05:12:32.447Z,21.83
2023-01-25T05:14:58.826Z,23.83
2023-01-25T05:17:25.252Z,19.38
2023-01-25T05:19:51.669Z,22.63
2023-01-25T05:22:18.100Z,18.55
2023-01-25T05:24:44.560Z,20.00
2023-01-25T05:27:10.963Z,18.13
2023-01-25T05:29:37.397Z,22.83
2023-01-25T05:32:03.832Z,21.77
2023-01-25T05:34:30.289Z,19.05
2023-01-25T05:36:56.722Z,20.48
2023-01-25T05:39:23.162Z,18.83
2023-01-25T05:41:49.642Z,18.13
2023-01-25T05:44:16.102Z,17.50
2023-01-25T05:46:42.543Z,19.00
2023-01-25T05:49:09.166Z,18.65
2023-01-25T05:51:35.567Z,17.60
2023-01-25T05:54:02.019Z,17.40
2023-01-25T05:56:28.449Z,18.40
2023-01-25T05:58:54.874Z,18.55
2023-01-25T06:01:21.318Z,16.40
2023-01-25T06:03:47.789Z,17.25
2023-01-25T06:06:14.188Z,15.25
2023-01-25T06:08:40.588Z,16.13
2023-01-25T06:11:06.965Z,17.90
2023-01-25T06:13:33.349Z,15.82
2023-01-25T06:15:59.791Z,14.23
2023-01-25T06:18:26.256Z,16.35
2023-01-25T06:20:52.719Z,15.57
2023-01-25T06:23:19.153Z,15.23
2023-01-25T06:25:45.554Z,17.02
2023-01-25T06:28:11.982Z,14.93
2023-01-25T06:30:38.432Z,14.80
2023-01-25T06:33:04.870Z,16.58
2023-01-25T06:35:31.320Z,15.60
2023-01-25T06:37:57.703Z,17.60
2023-01-25T06:40:24.137Z,15.63
2023-01-25T06:42:50.542Z,16.60
2023-01-25T06:45:16.965Z,14.25
2023-01-25T06:47:43.365Z,16.65
2023-01-25T06:50:09.744Z,15.88
2023-01-25T06:52:36.176Z,18.05
2023-01-25T06:55:02.625Z,15.82
2023-01-25T06:57:29.014Z,14.80
2023-01-25T06:59:55.397Z,16.23
2023-01-25T07:02:21.876Z,15.93
2023-01-25T07:04:48.319Z,18.75
2023-01-25T07:07:14.710Z,20.70
2023-01-25T07:09:41.100Z,17.75
2023-01-25T07:12:07.681Z,17.17
2023-01-25T07:14:34.122Z,17.52
2023-01-25T07:17:02.847Z,14.88
2023-01-25T07:19:30.165Z,17.52
2023-01-25T07:21:56.648Z,16.20
2023-01-25T07:24:23.176Z,15.38
2023-01-25T07:26:49.615Z,16.70
2023-01-25T07:29:15.997Z,16.40
2023-01-25T07:31:42.521Z,16.05
2023-01-25T07:34:08.941Z,20.25
2023-01-25T07:36:35.325Z,17.65
2023-01-25T07:39:01.710Z,18.73
2023-01-25T07:41:28.103Z,20.05
2023-01-25T07:43:54.550Z,19.88
2023-01-25T07:46:21.041Z,16.55
2023-01-25T07:48:47.477Z,21.70
2023-01-25T07:51:13.865Z,17.58
2023-01-25T07:53:40.295Z,18.48
2023-01-25T07:56:06.667Z,16.88
2023-01-25T07:58:33.104Z,18.27
2023-01-25T08:00:59.546Z,16.10
2023-01-25T08:03:25.973Z,16.30
2023-01-25T08:05:52.423Z,18.63
2023-01-25T08:08:18.881Z,16.92
2023-01-25T08:10:45.370Z,19.70
2023-01-25T08:13:11.819Z,26.27
2023-01-25T08:15:38.314Z,24.75
2023-01-25T08:18:04.696Z,20.02
2023-01-25T08:20:31.111Z,20.83
2023-01-25T08:22:57.520Z,21.95
2023-01-25T08:25:23.916Z,24.42
2023-01-25T08:27:50.310Z,22.70
2023-01-25T08:30:16.783Z,23.45
2023-01-25T08:32:43.278Z,22.70
2023-01-25T08:35:10.272Z,21.35
2023-01-25T08:37:36.849Z,25.77
2023-01-25T08:40:03.240Z,19.20
2023-01-25T08:42:29.678Z,22.10
2023-01-25T08:44:56.072Z,20.98
2023-01-25T08:47:22.509Z,18.38
2023-01-25T08:49:48.895Z,18.70
2023-01-25T08:52:15.324Z,17.65
2023-01-25T08:54:41.731Z,18.55
2023-01-25T08:57:08.302Z,19.00
2023-01-25T08:59:34.708Z,18.05
2023-01-25T09:02:01.080Z,19.58
2023-01-25T09:04:27.516Z,18.63
2023-01-25T09:06:53.956Z,21.55
2023-01-25T09:09:20.376Z,20.67
2023-01-25T09:11:46.875Z,23.58
2023-01-25T09:14:13.336Z,23.30
2023-01-25T09:16:39.990Z,20.38
2023-01-25T09:19:06.434Z,16.75
2023-01-25T09:21:32.855Z,17.15
2023-01-25T09:24:07.556Z,17.75
2023-01-25T09:26:34.404Z,17.27
2023-01-25T09:29:00.835Z,20.15
2023-01-25T09:31:30.356Z,25.90
2023-01-25T09:33:57.061Z,20.42
2023-01-25T09:36:23.423Z,18.42
2023-01-25T09:38:49.808Z,22.30
2023-01-25T09:41:16.187Z,23.80
2023-01-25T09:43:42.557Z,16.42
2023-01-25T09:46:08.957Z,17.25
2023-01-25T09:48:35.399Z,13.70
2023-01-25T09:51:01.894Z,18.02
2023-01-25T09:53:28.289Z,18.40
2023-01-25T09:55:54.755Z,23.25
2023-01-25T09:58:21.203Z,24.48
2023-01-25T10:00:47.607Z,23.33
2023-01-25T10:03:14.020Z,24.25
2023-01-25T10:05:40.434Z,31.52
2023-01-25T10:08:06.891Z,28.00
2023-01-25T10:10:33.326Z,27.52
2023-01-25T10:12:59.776Z,24.92
2023-01-25T10:15:26.230Z,27.65
2023-01-25T10:17:52.644Z,26.17
2023-01-25T10:20:19.027Z,23.52
2023-01-25T10:22:45.417Z,24.17
2023-01-25T10:25:11.871Z,22.30
2023-01-25T10:27:38.414Z,26.20
2023-01-25T10:30:04.808Z,22.35
2023-01-25T10:32:31.244Z,24.85
2023-01-25T10:34:57.856Z,23.23
2023-01-25T10:37:24.326Z,23.25
2023-01-25T10:39:50.718Z,25.88
2023-01-25T10:42:17.119Z,28.10
2023-01-25T10:44:43.528Z,24.58
2023-01-25T10:47:09.920Z,27.30
2023-01-25T10:49:36.364Z,27.13
2023-01-25T10:52:02.821Z,28.17
2023-01-25T10:54:30.293Z,26.60
2023-01-25T10:56:56.777Z,22.70
2023-01-25T10:59:23.214Z,23.27
2023-01-25T11:01:49.749Z,27.70
2023-01-25T11:04:16.175Z,27.88
2023-01-25T11:06:43.615Z,26.88
2023-01-25T11:09:09.986Z,26.30
2023-01-25T11:11:36.383Z,22.65
2023-01-25T11:14:02.773Z,20.60
2023-01-25T11:16:29.191Z,17.25
2023-01-25T11:18:55.564Z,16.85
2023-01-25T11:21:22.023Z,21.33
2023-01-25T11:23:49.270Z,23.83
2023-01-25T11:26:15.716Z,19.77
2023-01-25T11:28:42.324Z,18.90
2023-01-25T11:31:08.876Z,18.20
2023-01-25T11:33:35.393Z,16.92
2023-01-25T11:36:01.786Z,17.75
2023-01-25T11:38:28.165Z,19.27
2023-01-25T11:40:54.547Z,17.42
2023-01-25T11:43:20.929Z,21.15
2023-01-25T11:45:47.305Z,18.10
2023-01-25T11:48:13.679Z,18.73
2023-01-25T11:50:40.071Z,25.08
2023-01-25T11:53:06.445Z,23.27
2023-01-25T11:55:32.870Z,21.20
2023-01-25T11:57:59.263Z,22.50
2023-01-25T12:00:25.675Z,20.15
2023-01-25T12:02:52.215Z,24.70
2023-01-25T12:05:21.919Z,23.48
2023-01-25T12:07:48.801Z,24.52
2023-01-25T12:10:15.232Z,23.10
2023-01-25T12:12:41.668Z,23.33
2023-01-25T12:15:08.052Z,24.90
2023-01-25T12:17:34.419Z,24.58
2023-01-25T12:20:00.869Z,25.30
2023-01-25T12:22:27.274Z,32.55
2023-01-25T12:24:53.833Z,30.75
2023-01-25T12:27:20.237Z,30.17
2023-01-25T12:29:46.778Z,27.05
2023-01-25T12:32:13.155Z,25.73
2023-01-25T12:34:39.586Z,25.38
2023-01-25T12:37:06.029Z,27.27
2023-01-25T12:39:32.469Z,23.63
2023-01-25T12:41:58.898Z,24.75
2023-01-25T12:44:25.296Z,23.48
2023-01-25T12:46:51.755Z,22.65
2023-01-25T12:49:18.185Z,24.45
2023-01-25T12:51:44.638Z,20.85
2023-01-25T12:54:11.024Z,23.65
2023-01-25T12:56:37.666Z,23.98
2023-01-25T12:59:04.100Z,23.13
2023-01-25T13:01:30.529Z,25.45
2023-01-25T13:03:56.965Z,25.33
2023-01-25T13:06:23.426Z,28.45
2023-01-25T13:08:49.837Z,27.85
2023-01-25T13:11:16.215Z,28.50
2023-01-25T13:13:42.696Z,33.85
2023-01-25T13:16:09.241Z,34.60
2023-01-25T13:18:35.659Z,29.13
2023-01-25T13:21:02.024Z,26.88
2023-01-25T13:23:28.405Z,23.88
2023-01-25T13:25:54.768Z,25.23
2023-01-25T13:28:21.234Z,22.60
2023-01-25T13:30:47.669Z,19.10
2023-01-25T13:33:14.147Z,23.35
2023-01-25T13:35:40.551Z,30.65
2023-01-25T13:38:07.014Z,29.30
2023-01-25T13:40:33.464Z,29.52
2023-01-25T13:42:59.871Z,29.90
2023-01-25T13:45:26.294Z,32.67
2023-01-25T13:47:52.735Z,28.20
2023-01-25T13:50:19.144Z,26.65
2023-01-25T13:52:45.546Z,28.85
2023-01-25T13:55:12.034Z,28.33
2023-01-25T13:57:38.709Z,25.15
2023-01-25T14:00:10.921Z,22.27
2023-01-25T14:02:37.806Z,21.27
2023-01-25T14:05:04.188Z,21.27
2023-01-25T14:07:34.847Z,22.45
2023-01-25T14:10:01.302Z,29.67
2023-01-25T14:12:27.697Z,24.27
2023-01-25T14:14:54.126Z,28.52
2023-01-25T14:17:20.579Z,30.25
2023-01-25T14:19:47.041Z,27.92
2023-01-25T14:22:13.425Z,23.85
2023-01-25T14:24:39.797Z,22.02
2023-01-25T14:27:06.183Z,26.25
2023-01-25T14:29:33.496Z,27.88
2023-01-25T14:32:00.047Z,24.38
2023-01-25T14:34:26.595Z,25.98
2023-01-25T14:36:53.073Z,29.02
2023-01-25T14:39:19.510Z,37.35
2023-01-25T14:41:51.743Z,33.90
2023-01-25T14:44:26.388Z,26.67
2023-01-25T14:46:52.768Z,22.70
2023-01-25T14:49:19.222Z,25.23
2023-01-25T14:51:45.635Z,30.23
2023-01-25T14:54:12.029Z,33.10
2023-01-25T14:56:38.715Z,30.63
2023-01-25T14:59:05.115Z,29.13
2023-01-25T15:01:31.582Z,32.50
2023-01-25T15:03:57.997Z,29.13
2023-01-25T15:06:24.453Z,32.20
2023-01-25T15:08:50.890Z,30.05
2023-01-25T15:11:17.345Z,34.80
2023-01-25T15:13:43.804Z,34.38
2023-01-25T15:16:10.310Z,40.13
2023-01-25T15:18:36.776Z,30.45
2023-01-25T15:21:03.224Z,28.77
2023-01-25T15:23:29.680Z,27.75
2023-01-25T15:25:56.093Z,32.20
2023-01-25T15:28:22.506Z,32.00
2023-01-25T15:30:48.924Z,31.85
2023-01-25T15:33:15.509Z,32.33
2023-01-25T15:35:41.898Z,26.20
2023-01-25T15:38:08.460Z,27.05
2023-01-25T15:40:34.889Z,25.08
2023-01-25T15:43:01.268Z,38.67
2023-01-25T15:45:27.689Z,37.58
2023-01-25T15:47:54.121Z,40.22
2023-01-25T15:50:20.568Z,37.08
2023-01-25T15:52:46.957Z,34.17
2023-01-25T15:55:13.346Z,28.38
2023-01-25T15:57:39.712Z,39.60
2023-01-25T16:00:06.176Z,38.72
2023-01-25T16:02:32.624Z,35.08
2023-01-25T16:04:59.103Z,35.38
2023-01-25T16:07:25.568Z,32.50
2023-01-25T16:09:52.014Z,28.38
2023-01-25T16:12:18.414Z,32.45
2023-01-25T16:14:44.805Z,28.63
2023-01-25T16:17:11.270Z,27.63
2023-01-25T16:19:37.886Z,32.95
2023-01-25T16:22:04.333Z,33.35
2023-01-25T16:24:30.791Z,38.50
2023-01-25T16:26:57.179Z,41.75
2023-01-25T16:29:23.597Z,43.38
2023-01-25T16:31:50.176Z,43.38
2023-01-25T16:34:16.653Z,47.70
2023-01-25T16:36:43.299Z,44.58
2023-01-25T16:39:09.777Z,46.08
2023-01-25T16:41:36.304Z,51.03
2023-01-25T16:44:02.750Z,46.63
2023-01-25T16:46:29.235Z,54.67
2023-01-25T16:48:55.611Z,57.88
2023-01-25T16:51:22.046Z,49.33
2023-01-25T16:53:48.482Z,47.33
2023-01-25T16:56:14.912Z,53.75
2023-01-25T16:58:41.281Z,53.00
2023-01-25T17:01:07.872Z,50.13
2023-01-25T17:03:34.298Z,49.90
2023-01-25T17:06:00.748Z,47.50
2023-01-25T17:08:27.213Z,43.55
2023-01-25T17:10:53.603Z,52.25
2023-01-25T17:13:20.036Z,45.97
2023-01-25T17:15:46.513Z,54.28
2023-01-25T17:18:12.948Z,49.55
2023-01-25T17:20:39.334Z,48.53
2023-01-25T17:23:05.785Z,45.03
2023-01-25T17:25:32.172Z,38.33
2023-01-25T17:27:58.633Z,35.95
2023-01-25T17:30:25.029Z,37.13
2023-01-25T17:32:51.478Z,35.40
2023-01-25T17:35:17.927Z,31.42
2023-01-25T17:37:44.391Z,30.65
2023-01-25T17:40:11.322Z,29.50
2023-01-25T17:42:37.949Z,31.67
2023-01-25T17:45:04.342Z,32.75
2023-01-25T17:47:30.788Z,29.75
2023-01-25T17:49:57.227Z,31.80
2023-01-25T17:52:23.598Z,32.25
2023-01-25T17:54:50.040Z,29.10
2023-01-25T17:57:16.465Z,31.05
2023-01-25T17:59:42.851Z,26.90
2023-01-25T18:02:09.239Z,26.48
2023-01-25T18:04:35.671Z,29.67
2023-01-25T18:07:02.100Z,25.35
2023-01-25T18:09:28.596Z,27.58
2023-01-25T18:11:55.002Z,29.45
2023-01-25T18:14:21.435Z,26.92
2023-01-25T18:16:47.855Z,32.50
2023-01-25T18:19:14.238Z,41.42
2023-01-25T18:21:40.679Z,36.35
2023-01-25T18:24:07.138Z,33.97
2023-01-25T18:26:33.570Z,37.40
2023-01-25T18:28:59.978Z,34.53
2023-01-25T18:31:26.504Z,35.72
2023-01-25T18:33:53.010Z,30.60
2023-01-25T18:36:19.390Z,33.15
2023-01-25T18:38:45.757Z,28.77
2023-01-25T18:41:12.128Z,29.75
2023-01-25T18:43:38.511Z,31.27
2023-01-25T18:46:04.970Z,29.42
2023-01-25T18:48:31.388Z,24.13
2023-01-25T18:50:57.802Z,31.85
2023-01-25T18:53:24.265Z,34.42
2023-01-25T18:55:50.716Z,34.08
2023-01-25T18:58:17.115Z,42.97
2023-01-25T19:00:43.504Z,43.60
2023-01-25T19:03:09.883Z,45.30
2023-01-25T19:05:37.976Z,41.22
2023-01-25T19:08:04.546Z,36.20
2023-01-25T19:10:30.958Z,34.88
2023-01-25T19:12:57.350Z,34.03
2023-01-25T19:15:23.830Z,33.38
2023-01-25T19:17:50.356Z,32.50
2023-01-25T19:20:16.806Z,35.45
2023-01-25T19:22:43.181Z,36.50
2023-01-25T19:25:09.843Z,29.30
2023-01-25T19:27:36.446Z,29.40
2023-01-25T19:30:02.864Z,33.90
2023-01-25T19:32:29.294Z,32.25
2023-01-25T19:34:55.723Z,30.88
2023-01-25T19:37:22.177Z,31.58
2023-01-25T19:39:48.649Z,29.63
2023-01-25T19:42:16.711Z,29.98
2023-01-25T19:44:44.164Z,30.92
2023-01-25T19:47:10.584Z,32.13
2023-01-25T19:49:37.022Z,33.72
2023-01-25T19:52:03.456Z,33.33
2023-01-25T19:54:29.885Z,31.33
2023-01-25T19:56:56.359Z,29.38
2023-01-25T19:59:22.796Z,34.08
2023-01-25T20:01:49.448Z,30.13
2023-01-25T20:04:15.885Z,33.97
2023-01-25T20:06:42.271Z,33.30
2023-01-25T20:09:08.696Z,35.30
2023-01-25T20:11:35.272Z,38.65
2023-01-25T20:14:01.706Z,41.28
2023-01-25T20:16:28.257Z,35.50
2023-01-25T20:18:54.727Z,40.22
2023-01-25T20:21:21.090Z,31.98
2023-01-25T20:23:47.577Z,32.17
2023-01-25T20:26:13.993Z,38.75
2023-01-25T20:28:40.448Z,42.90
2023-01-25T20:31:06.865Z,43.97
2023-01-25T20:33:33.353Z,39.17
2023-01-25T20:35:59.775Z,46.17
2023-01-25T20:38:26.154Z,41.38
2023-01-25T20:40:52.595Z,36.75
2023-01-25T20:43:19.045Z,39.65
2023-01-25T20:45:45.635Z,36.75
2023-01-25T20:48:12.056Z,40.63
2023-01-25T20:50:38.471Z,37.22
2023-01-25T20:53:04.854Z,42.00
2023-01-25T20:55:31.259Z,41.05
2023-01-25T20:57:57.666Z,45.35
2023-01-25T21:00:24.059Z,43.65
2023-01-25T21:02:50.509Z,40.17
2023-01-25T21:05:16.937Z,40.00
2023-01-25T21:07:43.387Z,42.85
2023-01-25T21:10:09.830Z,41.95
2023-01-25T21:12:36.279Z,42.88
2023-01-25T21:15:02.737Z,41.03
2023-01-25T21:17:29.205Z,37.80
2023-01-25T21:19:55.651Z,34.80
2023-01-25T21:22:22.145Z,39.72
2023-01-25T21:24:48.625Z,38.13
2023-01-25T21:27:15.083Z,37.55
2023-01-25T21:29:41.718Z,39.75
2023-01-25T21:32:08.159Z,46.13
2023-01-25T21:34:34.556Z,44.47
2023-01-25T21:37:01.012Z,45.38
2023-01-25T21:39:27.483Z,43.97
2023-01-25T21:41:53.868Z,42.33
2023-01-25T21:44:20.281Z,43.92
2023-01-25T21:47:12.405Z,38.58
2023-01-25T21:49:33.165Z,42.42
2023-01-25T21:51:59.599Z,42.10
2023-01-25T21:54:25.999Z,45.47
2023-01-25T21:56:52.442Z,39.90
2023-01-25T21:59:18.863Z,36.70
2023-01-25T22:01:46.018Z,40.50
2023-01-25T22:04:12.448Z,39.58
2023-01-25T22:06:38.847Z,43.60
2023-01-25T22:09:05.222Z,38.17
2023-01-25T22:11:31.613Z,40.63
2023-01-25T22:13:58.021Z,37.88
2023-01-25T22:16:24.446Z,38.72
2023-01-25T22:18:50.878Z,41.90
2023-01-25T22:21:17.272Z,38.92
2023-01-25T22:23:43.723Z,40.83
2023-01-25T22:26:10.148Z,41.92
2023-01-25T22:28:36.540Z,44.97
2023-01-25T22:31:02.981Z,40.33
2023-01-25T22:33:29.390Z,40.90
2023-01-25T22:35:55.755Z,44.35
2023-01-25T22:38:22.119Z,44.70
2023-01-25T22:40:48.554Z,39.72
2023-01-25T22:43:14.939Z,41.08
2023-01-25T22:45:41.315Z,37.28
2023-01-25T22:48:07.726Z,40.63
2023-01-25T22:50:34.166Z,41.75
2023-01-25T22:53:00.545Z,49.47
2023-01-25T22:55:26.939Z,46.78
2023-01-25T22:57:53.347Z,42.28
2023-01-25T23:00:19.803Z,53.38
2023-01-25T23:02:46.247Z,46.95
2023-01-25T23:05:12.617Z,49.92
2023-01-25T23:07:38.995Z,49.63
2023-01-25T23:10:05.409Z,44.80
2023-01-25T23:12:31.838Z,42.10
2023-01-25T23:14:58.265Z,43.10
2023-01-25T23:17:24.680Z,41.90
2023-01-25T23:19:51.103Z,46.08
2023-01-25T23:22:17.538Z,43.45
2023-01-25T23:24:43.967Z,48.90
2023-01-25T23:27:10.404Z,46.70
2023-01-25T23:29:36.805Z,51.10
2023-01-25T23:32:03.213Z,42.30
2023-01-25T23:34:29.611Z,43.45
2023-01-25T23:36:56.017Z,44.90
2023-01-25T23:39:22.451Z,43.85
2023-01-25T23:41:48.840Z,33.72
2023-01-25T23:44:15.298Z,37.78
2023-01-25T23:46:41.754Z,39.08
2023-01-25T23:49:08.223Z,38.78
2023-01-25T23:51:34.646Z,43.97
2023-01-25T23:54:01.036Z,40.55
2023-01-25T23:56:27.464Z,37.47
2023-01-25T23:58:53.861Z,35.42
